METAR Data
IDs: Format: Raw Decoded Include TAF

Data at: 1124 UTC 26 Sep 2018

KPTS 261115Z AUTO 04005KT 10SM CLR 13/13 A3022 RMK AO2 T01330125
KPTS 261055Z AUTO 04004KT 10SM CLR 13/13 A3022 RMK AO2 T01330126
KPTS 261035Z AUTO 02004KT 10SM CLR 13/13 A3020 RMK AO2 T01330125
KPTS 261015Z AUTO 02005KT 10SM CLR 13/13 A3020 RMK AO2 T01330125
KPTS 260955Z AUTO 02005KT 10SM CLR 13/13 A3019 RMK AO2 T01330125
KPTS 260935Z AUTO 01004KT 10SM CLR 13/13 A3019 RMK AO2 T01330125
KPTS 260915Z AUTO 01005KT 10SM CLR 13/13 A3018 RMK AO2 T01330125
KPTS 260855Z AUTO 02004KT 10SM CLR 13/13 A3018 RMK AO2 T01330125
KPTS 260835Z AUTO 01005KT 10SM CLR 14/13 A3018 RMK AO2 T01390130
KPTS 260815Z AUTO 01006KT 10SM CLR 14/13 A3018 RMK AO2 T01440134
KPTS 260755Z AUTO 01004KT 10SM CLR 15/14 A3018 RMK AO2 T01470136
KPTS 260735Z AUTO 01005KT 10SM CLR 15/14 A3018 RMK AO2 T01470136
KPTS 260715Z AUTO 01006KT 10SM CLR 15/14 A3017 RMK AO2 T01470135
KPTS 260655Z AUTO 36006KT 10SM CLR 15/14 A3017 RMK AO2 T01470135
KPTS 260635Z AUTO 01006KT 10SM CLR 15/14 A3016 RMK AO2 T01480136
KPTS 260615Z AUTO 01005KT 10SM SCT075 15/14 A3016 RMK AO2 T01520141
KPTS 260555Z AUTO 01005KT 10SM SCT065 BKN075 BKN100 16/15 A3015 RMK AO2 T01590148
KPTS 260535Z AUTO 01005KT 10SM SCT060 BKN075 OVC100 16/15 A3015 RMK AO2 T01610151
KPTS 260515Z AUTO 02006KT 10SM BKN060 OVC085 16/15 A3014 RMK AO2 T01610151
KPTS 260455Z AUTO 01006G15KT 10SM SCT065 BKN085 OVC120 16/15 A3014 RMK AO2 P0011 T01610154
KPTS 260435Z AUTO 01011KT 10SM -RA SCT045 SCT070 BKN120 16/16 A3012 RMK AO2 LTG DSNT E P0011 T01610155
KPTS 260415Z AUTO 01006G16KT 7SM VCTSRA SCT014 BKN040 OVC050 16/15 A3014 RMK AO2 LTG DSNT NE AND E P0010 T01610153
KPTS 260355Z AUTO 01011G16KT 7SM +TSRA SCT017 BKN037 OVC060 16/15 A3010 RMK AO2 LTG DSNT NE AND SE P0012 T01610151
KPTS 260335Z AUTO 31007G19KT 290V020 5SM +RA OVC033 17/15 A3010 RMK AO2 LTG DSNT SW P0004 T01650145
KPTS 260315Z AUTO 01012G19KT 10SM SCT020 BKN031 OVC055 17/14 A3007 RMK AO2 LTG DSNT NE AND W T01730144
KPTS 260255Z AUTO 36009G17KT 10SM SCT022 BKN029 OVC036 18/14 A3007 RMK AO2 T01750144
KPTS 260235Z AUTO 36011G17KT 10SM SCT024 BKN036 OVC055 18/15 A3007 RMK AO2 LTG DSNT N T01750145
KPTS 260215Z AUTO 36009G15KT 10SM BKN065 BKN080 BKN100 18/15 A3005 RMK AO2 T01750149
KPTS 260155Z AUTO 35008G16KT 10SM BKN060 BKN070 OVC110 18/16 A3004 RMK AO2 T01780156
KPTS 260135Z AUTO 36009G17KT 10SM BKN060 BKN095 18/17 A3002 RMK AO2 T01840166
KPTS 260115Z AUTO 01009G16KT 10SM SCT095 SCT120 19/17 A3001 RMK AO2 T01900172
KPTS 260055Z AUTO 35009KT 330V030 10SM SCT055 SCT095 SCT110 20/19 A3000 RMK AO2 P0013 T02000185
KPTS 260035Z AUTO 35007KT 10SM SCT013 SCT029 SCT100 22/21 A2998 RMK AO2 P0013 T02150205
KPTS 260015Z AUTO 33003KT 5SM TSRA SCT012 BKN029 OVC050 22/20 A2998 RMK AO2 LTG DSNT E AND SE P0012 T02190202
KPTS 252355Z AUTO 27008G18KT 250V320 10SM TSRA BKN050 BKN070 OVC110 24/20 A2997 RMK AO2 LTG DSNT ALQS T02410199
KPTS 252335Z AUTO 34010G16KT 300V020 10SM SCT050 BKN060 BKN070 26/20 A2990 RMK AO2 LTG DSNT N AND W T02600195
KPTS 252315Z AUTO 00000KT 10SM BKN070 BKN080 27/19 A2989 RMK AO2 T02720192
KPTS 252255Z AUTO 23004KT 10SM SCT050 BKN080 BKN090 29/18 A2989 RMK AO2 T02860183
KPTS 252235Z AUTO 23004KT 10SM SCT050 SCT080 29/18 A2988 RMK AO2 T02930181
KPTS 252215Z AUTO 23004KT 10SM CLR 30/18 A2989 RMK AO2 T02950182
KPTS 252155Z AUTO 22005KT 10SM CLR 30/18 A2989 RMK AO2 T02960181
KPTS 252135Z AUTO 27007KT 10SM CLR 30/18 A2989 RMK AO2 T02950181
KPTS 252115Z AUTO 26007G17KT 10SM SCT055 30/18 A2989 RMK AO2 T02950181
KPTS 252055Z AUTO 24006KT 10SM CLR 29/18 A2989 RMK AO2 T02940182
KPTS 252035Z AUTO 23010KT 10SM CLR 29/18 A2990 RMK AO2 T02940184
KPTS 252015Z AUTO 20007G15KT 10SM CLR 29/19 A2990 RMK AO2 T02930189
KPTS 251955Z AUTO 22008G16KT 10SM SCT036 29/20 A2990 RMK AO2 T02880195
KPTS 251935Z AUTO 25007KT 210V270 10SM SCT034 SCT046 29/20 A2990 RMK AO2 T02860196
KPTS 251915Z AUTO 23007KT 10SM SCT034 SCT044 29/20 A2991 RMK AO2 T02850198
KPTS 251855Z AUTO 22007KT 10SM SCT032 28/19 A2992 RMK AO2 T02800194
KPTS 251835Z AUTO 21008KT 170V230 10SM SCT032 SCT040 28/20 A2992 RMK AO2 T02790195
KPTS 251815Z AUTO 23009G14KT 10SM BKN032 BKN042 BKN048 28/20 A2993 RMK AO2 T02760197
KPTS 251755Z AUTO 27007G14KT 240V300 10SM SCT032 BKN038 27/19 A2994 RMK AO2 T02740193
KPTS 251735Z AUTO 23009G15KT 10SM SCT028 SCT039 27/19 A2994 RMK AO2 T02730194
KPTS 251715Z AUTO 22009KT 10SM SCT024 SCT031 SCT037 27/20 A2994 RMK AO2 T02680200
KPTS 251655Z AUTO 22012KT 10SM SCT029 SCT035 SCT043 27/20 A2993 RMK AO2 T02660199
KPTS 251635Z AUTO 22011KT 10SM SCT021 SCT027 SCT040 26/20 A2993 RMK AO2 T02630200
KPTS 251615Z AUTO 19013G17KT 10SM SCT019 BKN025 BKN031 26/21 A2993 RMK AO2 T02570205
KPTS 251555Z AUTO 19009G15KT 10SM SCT017 SCT024 SCT031 25/21 A2993 RMK AO2 T02450205
KPTS 251535Z AUTO 22010G15KT 10SM SCT017 SCT022 BKN032 25/21 A2993 RMK AO2 T02450210
KPTS 251515Z AUTO 21012KT 10SM SCT012 BKN022 OVC026 25/22 A2993 RMK AO2 T02450219
KPTS 251455Z AUTO 21014G17KT 10SM SCT010 BKN016 OVC024 24/22 A2993 RMK AO2 T02360220
KPTS 251435Z AUTO 21009KT 10SM OVC012 23/22 A2993 RMK AO2 T02250218
KPTS 251415Z AUTO 21011KT 10SM BKN007 OVC012 22/22 A2993 RMK AO2 T02180216
KPTS 251355Z AUTO 20007KT 7SM OVC007 22/22 A2993 RMK AO2 T02170216
KPTS 251335Z AUTO 19007KT 7SM OVC007 22/22 A2993 RMK AO2 T02170217
KPTS 251315Z AUTO 19007KT 7SM OVC007 22/22 A2993 RMK AO2 T02170218
KPTS 251255Z AUTO 20005KT 7SM OVC007 22/22 A2993 RMK AO2 T02170218
KPTS 251235Z AUTO 19006KT 7SM OVC007 22/22 A2993 RMK AO2 T02170218
KPTS 251215Z AUTO 19005KT 7SM OVC007 22/22 A2993 RMK AO2 T02170218
KPTS 251155Z AUTO 21004KT 7SM OVC007 22/22 A2992 RMK AO2 T02170218
KPTS 251135Z AUTO 00000KT 7SM BKN007 OVC012 22/22 A2992 RMK AO2 T02170218
KPTS 251115Z AUTO 21003KT 7SM SCT009 OVC016 22/22 A2992 RMK AO2 T02170218
KPTS 251055Z AUTO 22003KT 7SM SCT006 OVC016 22/22 A2992 RMK AO2 T02170218
KPTS 251035Z AUTO 00000KT 7SM SCT006 BKN012 BKN018 22/22 A2992 RMK AO2 T02170218
KPTS 251015Z AUTO 22005KT 7SM BKN006 BKN012 OVC039 22/22 A2991 RMK AO2 T02170218
KPTS 250955Z AUTO 19004KT 7SM OVC006 22/22 A2991 RMK AO2 LTG DSNT E T02170218
KPTS 250935Z AUTO 18003KT 7SM BKN008 BKN028 22/22 A2990 RMK AO2 LTG DSNT E T02170218
KPTS 250915Z AUTO 20003KT 7SM BKN008 BKN012 BKN026 22/22 A2990 RMK AO2 T02170218
KPTS 250855Z AUTO 19004KT 7SM BKN008 BKN016 22/22 A2990 RMK AO2 T02170218
KPTS 250835Z AUTO 17005KT 7SM BKN010 BKN016 BKN050 22/22 A2990 RMK AO2 T02170218
KPTS 250815Z AUTO 17006KT 10SM SCT015 SCT021 BKN050 22/22 A2990 RMK AO2 T02170218
KPTS 250735Z AUTO 16004KT 7SM CLR 22/22 A2990 RMK AO2 T02170217
KPTS 250715Z AUTO 17004KT 10SM SCT060 22/22 A2990 RMK AO2 T02170216
KPTS 250655Z AUTO 17003KT 10SM OVC060 22/22 A2990 RMK AO2 T02170215
KPTS 250635Z AUTO 17003KT 10SM SCT022 SCT028 OVC060 22/22 A2990 RMK AO2 T02170215
KPTS 250615Z AUTO 17003KT 10SM SCT022 SCT032 BKN060 22/21 A2990 RMK AO2 T02170214
KPTS 250555Z AUTO 21003KT 10SM SCT042 SCT060 22/21 A2990 RMK AO2 T02170211
KPTS 250515Z AUTO 17004KT 10SM SCT027 BKN035 OVC042 22/21 A2990 RMK AO2 T02170211
KPTS 250455Z AUTO 17003KT 10SM SCT025 SCT032 22/21 A2990 RMK AO2 T02170211
KPTS 250435Z AUTO 14004KT 10SM CLR 22/21 A2989 RMK AO2 T02170210
KPTS 250415Z AUTO 00000KT 10SM SCT065 22/21 A2990 RMK AO2 T02170206
KPTS 250355Z AUTO 00000KT 10SM BKN065 22/21 A2990 RMK AO2 T02170205
KPTS 250335Z AUTO 14003KT 10SM SCT038 BKN065 22/21 A2989 RMK AO2 T02220208
KPTS 250315Z AUTO 14003KT 10SM OVC038 22/21 A2989 RMK AO2 T02180206
KPTS 250255Z AUTO 00000KT 10SM SCT038 SCT050 BKN070 22/20 A2989 RMK AO2 T02170202
KPTS 250235Z AUTO 00000KT 10SM SCT046 SCT050 BKN070 22/20 A2989 RMK AO2 T02220204
KPTS 250215Z AUTO 12003KT 10SM SCT046 BKN060 23/21 A2988 RMK AO2 T02270205
KPTS 250155Z AUTO 12003KT 10SM SCT060 23/21 A2987 RMK AO2 T02310206
KPTS 250135Z AUTO 12004KT 10SM BKN060 24/21 A2986 RMK AO2 T02360209
KPTS 250115Z AUTO 11004KT 10SM OVC060 25/22 A2986 RMK AO2 T02450215
KPTS 250055Z AUTO 12003KT 10SM SCT037 OVC060 25/22 A2986 RMK AO2 T02450217
KPTS 250035Z AUTO 00000KT 10SM BKN037 OVC060 25/21 A2986 RMK AO2 T02450212
KPTS 250015Z AUTO 00000KT 10SM OVC060 25/20 A2985 RMK AO2 T02450201
KPTS 242355Z AUTO 13003KT 10SM SCT042 OVC050 25/20 A2985 RMK AO2 T02450196
KPTS 242335Z AUTO 15004KT 10SM OVC050 25/19 A2985 RMK AO2 T02470194